createdAt,value
2019-06-20T18:48:53.289Z,991.86
2019-06-20T18:49:52.991Z,991.88
2019-06-20T18:50:53.560Z,991.87
2019-06-20T18:51:53.465Z,991.90
2019-06-20T18:52:52.994Z,991.92
2019-06-20T18:53:52.857Z,991.96
2019-06-20T18:54:52.750Z,992.06
2019-06-20T18:55:52.662Z,992.03
2019-06-20T18:56:52.590Z,991.98
2019-06-20T18:57:52.526Z,991.97
2019-06-20T18:58:52.461Z,991.97
2019-06-20T18:59:52.429Z,992.00
2019-06-20T19:00:52.272Z,991.94
2019-06-20T19:01:52.242Z,991.92
2019-06-20T19:02:52.131Z,991.93
2019-06-20T19:03:52.300Z,991.95
2019-06-20T19:04:51.933Z,991.91
2019-06-20T19:05:51.872Z,991.90
2019-06-20T19:06:51.760Z,991.90
2019-06-20T19:07:51.675Z,991.89
2019-06-20T19:08:51.612Z,991.96
2019-06-20T19:09:51.502Z,991.95
2019-06-20T19:10:51.394Z,991.94
2019-06-20T19:11:51.294Z,991.95
2019-06-20T19:12:51.201Z,991.93
2019-06-20T19:13:51.135Z,991.92
2019-06-20T19:14:51.019Z,992.00
2019-06-20T19:15:50.910Z,991.96
2019-06-20T19:16:51.492Z,991.98
2019-06-20T19:17:50.704Z,992.06
2019-06-20T19:18:50.644Z,992.12
2019-06-20T19:19:50.519Z,992.11
2019-06-20T19:20:50.415Z,992.16
2019-06-20T19:21:50.363Z,992.24
2019-06-20T19:22:50.260Z,992.22
2019-06-20T19:23:50.213Z,992.24
2019-06-20T19:24:50.027Z,992.32
2019-06-20T19:25:50.029Z,992.24
2019-06-20T19:26:49.834Z,992.26
2019-06-20T19:27:49.777Z,992.15
2019-06-20T19:28:49.658Z,992.21
2019-06-20T19:29:49.895Z,992.18
2019-06-20T19:30:49.426Z,992.14
2019-06-20T19:31:49.347Z,992.15
2019-06-20T19:32:49.237Z,992.14
2019-06-20T19:33:51.952Z,992.15
2019-06-20T19:35:01.380Z,992.21
2019-06-20T19:35:49.936Z,992.26
2019-06-20T19:36:48.865Z,992.26
2019-06-20T19:37:48.728Z,992.30
2019-06-20T19:38:48.654Z,992.32
2019-06-20T19:39:48.620Z,992.31
2019-06-20T19:40:48.418Z,992.31
2019-06-20T19:41:48.328Z,992.37
2019-06-20T19:42:48.239Z,992.28
2019-06-20T19:43:48.148Z,992.33
2019-06-20T19:44:48.037Z,992.35
2019-06-20T19:45:47.919Z,992.43
2019-06-20T19:46:47.828Z,992.44
2019-06-20T19:47:47.776Z,992.52
2019-06-20T19:48:48.151Z,992.48
2019-06-20T19:49:47.578Z,992.56
2019-06-20T19:50:47.430Z,992.57
2019-06-20T19:51:47.360Z,992.64
2019-06-20T19:52:47.231Z,992.66
2019-06-20T19:53:48.118Z,992.64
2019-06-20T19:54:47.042Z,992.63
2019-06-20T19:55:47.012Z,992.60
2019-06-20T19:56:46.856Z,992.61
2019-06-20T19:57:46.729Z,992.59
2019-06-20T19:58:46.682Z,992.55
2019-06-20T19:59:46.519Z,992.54
2019-06-20T20:00:46.431Z,992.54
2019-06-20T20:07:23.065Z,992.56
2019-06-20T20:08:22.948Z,992.64
2019-06-20T20:09:22.883Z,992.70
2019-06-20T20:10:51.244Z,992.70
2019-06-20T20:11:51.264Z,992.70
2019-06-20T20:12:51.115Z,992.70
2019-06-20T20:13:51.091Z,992.71
2019-06-20T20:14:50.983Z,992.73
2019-06-20T20:15:50.871Z,992.67
2019-06-20T20:16:50.811Z,992.75
2019-06-20T20:17:50.683Z,992.78
2019-06-20T20:18:50.584Z,992.83
2019-06-20T20:19:50.524Z,992.89
2019-06-20T20:20:50.393Z,992.94
2019-06-20T20:21:50.303Z,992.96
2019-06-20T20:22:50.225Z,992.98
2019-06-20T20:23:50.096Z,992.96
2019-06-20T20:24:50.024Z,992.88
2019-06-20T20:25:49.905Z,992.93
2019-06-20T20:26:49.795Z,992.92
2019-06-20T20:27:49.708Z,993.00
2019-06-20T20:28:49.607Z,993.02
2019-06-20T20:29:49.525Z,993.06
2019-06-20T20:30:49.418Z,993.10
2019-06-20T20:31:49.296Z,993.11
2019-06-20T20:32:49.192Z,993.05
2019-06-20T20:33:49.087Z,993.07
2019-06-20T20:34:49.017Z,993.08
2019-06-20T20:35:48.887Z,993.08
2019-06-20T20:36:48.800Z,993.10
2019-06-20T20:37:48.727Z,993.11
2019-06-20T20:38:48.596Z,993.14
2019-06-20T20:39:48.678Z,993.13
2019-06-20T20:40:48.391Z,993.15
2019-06-20T20:41:48.287Z,993.07
2019-06-20T20:42:48.187Z,993.07
2019-06-20T20:43:48.079Z,993.01
2019-06-20T20:44:48.007Z,993.11
2019-06-20T20:45:47.868Z,993.05
2019-06-20T20:46:47.768Z,993.09
2019-06-20T20:47:47.681Z,993.10
2019-06-20T20:48:47.689Z,993.13
2019-06-20T20:49:47.490Z,993.15
2019-06-20T20:50:47.357Z,993.08
2019-06-20T20:51:47.260Z,993.10
2019-06-20T20:52:47.148Z,993.11
2019-06-20T20:53:47.069Z,993.08
2019-06-20T20:54:46.970Z,993.07
2019-06-20T20:55:46.841Z,993.10
2019-06-20T20:56:46.738Z,992.99
2019-06-20T20:57:46.649Z,993.03
2019-06-20T20:58:46.529Z,992.97
2019-06-20T20:59:46.451Z,992.99
2019-06-20T21:00:46.310Z,993.01
2019-06-20T21:01:46.230Z,993.04
2019-06-20T21:02:46.110Z,993.08
2019-06-20T21:03:46.191Z,993.07
2019-06-20T21:04:45.931Z,993.08
2019-06-20T21:05:51.323Z,993.08
2019-06-20T21:06:46.862Z,993.03
2019-06-20T21:07:45.601Z,993.09
2019-06-20T21:08:45.494Z,993.19
2019-06-20T21:09:45.458Z,993.15
2019-06-20T21:10:45.298Z,993.24
2019-06-20T21:11:45.183Z,993.17
2019-06-20T21:12:45.081Z,993.26
2019-06-20T21:13:44.995Z,993.25
2019-06-20T21:14:44.922Z,993.20
2019-06-20T21:15:44.792Z,993.24
2019-06-20T21:16:44.685Z,993.19
2019-06-20T21:17:44.616Z,993.22
2019-06-20T21:18:44.482Z,993.19
2019-06-20T21:19:44.433Z,993.23
2019-06-20T21:20:44.324Z,993.29
2019-06-20T21:21:44.193Z,993.26
2019-06-20T21:22:44.112Z,993.26
2019-06-20T21:23:43.997Z,993.27
2019-06-20T21:24:43.902Z,993.28
2019-06-20T21:25:43.805Z,993.26
2019-06-20T21:26:49.583Z,993.32
2019-06-20T21:27:44.575Z,993.30
2019-06-20T21:28:43.483Z,993.33
2019-06-20T21:29:43.394Z,993.28
2019-06-20T21:30:43.340Z,993.30
2019-06-20T21:31:43.296Z,993.31
2019-06-20T21:32:43.107Z,993.29
2019-06-20T21:33:43.015Z,993.32
2019-06-20T21:34:42.916Z,993.28
2019-06-20T21:35:42.937Z,993.28
2019-06-20T21:36:43.468Z,993.30
2019-06-20T21:37:42.736Z,993.28
2019-06-20T21:38:42.557Z,993.24
2019-06-20T21:39:42.467Z,993.34
2019-06-20T21:40:42.398Z,993.32
2019-06-20T21:41:42.276Z,993.39
2019-06-20T21:42:42.185Z,993.36
2019-06-20T21:43:42.086Z,993.38
2019-06-20T21:44:41.995Z,993.40
2019-06-20T21:45:41.928Z,993.37
2019-06-20T21:46:41.798Z,993.34
2019-06-20T21:47:41.716Z,993.36
2019-06-20T21:48:41.618Z,993.32
2019-06-20T21:49:41.530Z,993.30
2019-06-20T21:50:41.458Z,993.27
2019-06-20T21:51:44.504Z,993.36
2019-06-20T21:52:41.438Z,993.33
2019-06-20T21:53:41.157Z,993.41
2019-06-20T21:54:41.069Z,993.41
2019-06-20T21:55:41.018Z,993.40
2019-06-20T21:56:40.898Z,993.40
2019-06-20T21:57:40.856Z,993.45
2019-06-20T21:58:40.864Z,993.45
2019-06-20T21:59:40.643Z,993.48
2019-06-20T22:00:40.585Z,993.43
2019-06-20T22:01:40.510Z,993.46
2019-06-20T22:02:40.386Z,993.41
2019-06-20T22:03:40.489Z,993.47
2019-06-20T22:04:53.696Z,993.46
2019-06-20T22:05:41.150Z,993.49
2019-06-20T22:06:40.229Z,993.49
2019-06-20T22:07:39.959Z,993.54
2019-06-20T22:08:39.871Z,993.43
2019-06-20T22:09:39.782Z,993.49
2019-06-20T22:10:39.763Z,993.49
2019-06-20T22:11:39.610Z,993.46
2019-06-20T22:12:39.519Z,993.46
2019-06-20T22:13:39.431Z,993.46
2019-06-20T22:14:39.410Z,993.41
2019-06-20T22:15:39.290Z,993.47
2019-06-20T22:16:39.173Z,993.45
2019-06-20T22:17:39.082Z,993.48
2019-06-20T22:18:39.004Z,993.49
2019-06-20T22:19:38.912Z,993.45
2019-06-20T22:20:38.860Z,993.50
2019-06-20T22:21:38.882Z,993.49
2019-06-20T22:22:38.673Z,993.51
2019-06-20T22:23:38.691Z,993.47
2019-06-20T22:24:38.703Z,993.45
2019-06-20T22:25:38.453Z,993.56
2019-06-20T22:26:38.352Z,993.54
2019-06-20T22:27:38.272Z,993.52
2019-06-20T22:28:38.188Z,993.53
2019-06-20T22:29:38.133Z,993.47
2019-06-20T22:30:38.036Z,993.55
2019-06-20T22:31:37.921Z,993.52
2019-06-20T22:32:37.887Z,993.57
2019-06-20T22:33:37.733Z,993.61
2019-06-20T22:34:37.640Z,993.57
2019-06-20T22:35:37.595Z,993.62
2019-06-20T22:36:40.607Z,993.63
2019-06-20T22:37:37.643Z,993.61
2019-06-20T22:38:37.504Z,993.54
2019-06-20T22:39:37.405Z,993.54
2019-06-20T22:40:37.292Z,993.58
2019-06-20T22:41:37.164Z,993.57
2019-06-20T22:42:36.937Z,993.60
2019-06-20T22:43:37.010Z,993.61
2019-06-20T22:44:36.723Z,993.60
2019-06-20T22:45:36.714Z,993.66
2019-06-20T22:46:36.574Z,993.63
2019-06-20T22:47:36.445Z,993.66
2019-06-20T22:48:36.365Z,993.68
2019-06-20T22:53:19.419Z,993.83
2019-06-20T22:54:19.402Z,993.88
2019-06-20T22:55:19.387Z,993.83
2019-06-20T22:56:19.407Z,993.83
2019-06-20T22:57:19.368Z,993.90
2019-06-20T22:58:19.357Z,993.91
2019-06-20T22:59:19.327Z,993.86
2019-06-20T23:00:19.351Z,993.84
2019-06-20T23:01:19.332Z,993.87
2019-06-20T23:02:19.293Z,993.93
2019-06-20T23:03:19.339Z,993.88
2019-06-20T23:04:19.280Z,993.95
2019-06-20T23:05:19.369Z,993.94
2019-06-20T23:06:19.240Z,993.93
2019-06-20T23:07:19.209Z,993.99
2019-06-20T23:08:19.206Z,993.94
2019-06-20T23:09:19.190Z,993.92
2019-06-20T23:10:19.162Z,993.90
2019-06-20T23:11:19.169Z,993.93
2019-06-20T23:12:19.149Z,993.89
2019-06-20T23:13:19.115Z,993.93
2019-06-20T23:14:19.089Z,993.88
2019-06-20T23:15:19.076Z,993.92
2019-06-20T23:16:19.080Z,993.89
2019-06-20T23:17:19.042Z,993.94
2019-06-20T23:18:19.023Z,993.93
2019-06-20T23:19:19.020Z,993.92
2019-06-20T23:20:18.996Z,993.92
2019-06-20T23:21:19.012Z,993.92
2019-06-20T23:22:18.978Z,993.93
2019-06-20T23:23:18.961Z,993.95
2019-06-20T23:24:18.941Z,993.97
2019-06-20T23:25:18.931Z,994.02
2019-06-20T23:26:18.954Z,994.01
2019-06-20T23:27:18.913Z,993.98
2019-06-20T23:28:18.902Z,994.01
2019-06-20T23:29:18.882Z,994.06
2019-06-20T23:30:18.875Z,994.00
2019-06-20T23:31:18.902Z,994.03
2019-06-20T23:32:18.853Z,994.04
2019-06-20T23:33:18.843Z,994.04
2019-06-20T23:34:18.849Z,994.04
2019-06-20T23:35:18.821Z,994.07
2019-06-20T23:36:18.814Z,994.10
2019-06-20T23:37:18.831Z,994.06
2019-06-20T23:38:18.793Z,994.10
2019-06-20T23:39:18.783Z,994.13
2019-06-20T23:40:18.783Z,994.14
2019-06-20T23:41:18.773Z,994.21
2019-06-20T23:42:18.784Z,994.16
2019-06-20T23:43:18.752Z,994.16
2019-06-20T23:44:18.748Z,994.18
2019-06-20T23:45:18.725Z,994.21
2019-06-20T23:46:18.715Z,994.21
2019-06-20T23:47:18.734Z,994.19
2019-06-20T23:48:18.703Z,994.19
2019-06-20T23:49:18.685Z,994.22
2019-06-20T23:50:18.684Z,994.21
2019-06-20T23:51:25.227Z,994.25
2019-06-20T23:52:19.695Z,994.25
2019-06-20T23:53:18.659Z,994.23
2019-06-20T23:54:18.655Z,994.23
2019-06-20T23:55:18.646Z,994.25
2019-06-20T23:56:18.628Z,994.21
2019-06-20T23:57:18.655Z,994.20
2019-06-20T23:58:18.615Z,994.22
2019-06-20T23:59:18.625Z,994.24
